Time;durP1;ratioP1;P1;durP2;ratioP2;P2;SDS_P1;SDS_P2;PMS_P1;PMS_P2;Temp;Humidity;BMP_temperature;BMP_pressure;BME280_temperature;BME280_humidity;BME280_pressure;Samples;Min_cycle;Max_cycle;Signal;HPM_P1;HPM_P2
2022/02/22 00:02:11;;;;;;;12.63;4.03;;;8.00;99.90;;;;;;5029132;28;20535;-40
2022/02/22 00:04:38;;;;;;;17.83;3.53;;;8.30;99.90;;;;;;5029501;28;20516;-40
2022/02/22 00:07:08;;;;;;;14.80;3.10;;;7.90;99.90;;;;;;5025298;28;21059;-41
2022/02/22 00:09:33;;;;;;;12.10;3.67;;;8.00;99.90;;;;;;5025617;28;20429;-40
2022/02/22 00:11:59;;;;;;;23.63;4.40;;;8.10;99.90;;;;;;5029222;28;20425;-40
2022/02/22 00:14:25;;;;;;;13.00;3.63;;;7.90;99.90;;;;;;5029879;28;20273;-40
2022/02/22 00:16:55;;;;;;;13.57;3.60;;;8.00;99.90;;;;;;5027796;28;20194;-40
2022/02/22 00:19:26;;;;;;;16.00;4.60;;;7.80;99.90;;;;;;5029665;28;20676;-40
2022/02/22 00:21:52;;;;;;;19.87;4.80;;;8.00;99.90;;;;;;5013891;28;20469;-40
2022/02/22 00:24:18;;;;;;;14.57;3.80;;;8.10;99.90;;;;;;5024259;28;20413;-40
2022/02/22 00:26:45;;;;;;;18.60;3.77;;;8.00;99.90;;;;;;5029360;28;20417;-40
2022/02/22 00:29:11;;;;;;;12.27;3.70;;;8.00;99.90;;;;;;5028193;28;20422;-41
2022/02/22 00:31:37;;;;;;;14.03;4.40;;;8.00;99.90;;;;;;5028786;28;20579;-40
2022/02/22 00:34:04;;;;;;;15.43;6.50;;;7.80;99.90;;;;;;5028984;28;21022;-40
2022/02/22 00:36:30;;;;;;;19.73;4.00;;;7.80;99.90;;;;;;5029330;28;20490;-40
2022/02/22 00:38:57;;;;;;;15.07;4.00;;;7.80;99.90;;;;;;5018139;28;20437;-42
2022/02/22 00:41:23;;;;;;;13.20;4.10;;;7.80;99.90;;;;;;5027128;28;20468;-42
2022/02/22 00:43:48;;;;;;;12.90;3.27;;;7.60;99.90;;;;;;5029034;28;20566;-40
2022/02/22 00:46:14;;;;;;;20.70;4.43;;;7.80;99.90;;;;;;5029116;28;20187;-40
2022/02/22 00:48:40;;;;;;;15.37;3.90;;;7.40;99.90;;;;;;5029020;28;20429;-40
2022/02/22 00:51:05;;;;;;;16.17;4.30;;;7.30;99.90;;;;;;5028660;28;20225;-40
2022/02/22 00:53:31;;;;;;;12.40;3.70;;;7.80;99.90;;;;;;5019105;28;20709;-40
2022/02/22 00:55:57;;;;;;;12.10;3.80;;;7.70;99.90;;;;;;5028982;28;20225;-40
2022/02/22 00:58:23;;;;;;;13.43;3.70;;;7.60;99.90;;;;;;5029003;28;20206;-40
2022/02/22 01:00:48;;;;;;;14.97;4.77;;;7.50;99.90;;;;;;5028362;28;20218;-42
2022/02/22 01:03:14;;;;;;;10.63;3.50;;;7.60;99.90;;;;;;5028804;28;20187;-40
2022/02/22 01:05:39;;;;;;;14.30;4.13;;;7.60;99.90;;;;;;5028849;28;20206;-40
2022/02/22 01:08:05;;;;;;;15.57;4.07;;;7.50;99.90;;;;;;5021073;28;20205;-40
2022/02/22 01:10:32;;;;;;;15.70;4.37;;;7.60;99.90;;;;;;5026949;28;20194;-40
2022/02/22 01:12:58;;;;;;;8.47;2.30;;;7.70;99.90;;;;;;5028573;28;20785;-40
2022/02/22 01:15:24;;;;;;;9.60;2.33;;;7.40;99.90;;;;;;5008852;28;20510;-40
2022/02/22 01:17:50;;;;;;;7.57;2.30;;;7.50;99.90;;;;;;5025167;28;20426;-40
2022/02/22 01:20:16;;;;;;;10.83;2.20;;;7.40;99.90;;;;;;5034042;28;20835;-40
2022/02/22 01:22:42;;;;;;;8.20;2.27;;;7.40;99.90;;;;;;5042860;28;20199;-39
2022/02/22 01:25:09;;;;;;;9.07;2.33;;;7.30;99.90;;;;;;5023705;28;20417;-41
2022/02/22 01:27:36;;;;;;;5.30;2.00;;;7.30;99.90;;;;;;5027916;28;20471;-42
2022/02/22 01:30:03;;;;;;;11.07;2.73;;;7.00;99.90;;;;;;5027743;28;20417;-41
2022/02/22 01:32:29;;;;;;;8.67;3.03;;;6.80;99.90;;;;;;5027576;28;20491;-40
2022/02/22 01:34:54;;;;;;;17.83;3.83;;;7.00;99.90;;;;;;5028388;28;20917;-41
2022/02/22 01:37:20;;;;;;;9.57;3.50;;;6.90;99.90;;;;;;5026963;28;20194;-42
2022/02/22 01:39:46;;;;;;;11.80;4.83;;;7.00;99.90;;;;;;5015016;28;20192;-40
2022/02/22 01:42:12;;;;;;;13.13;4.30;;;6.70;99.90;;;;;;5027581;28;20190;-40
2022/02/22 01:44:37;;;;;;;16.80;4.10;;;6.90;99.90;;;;;;5028143;28;20202;-40
2022/02/22 01:47:04;;;;;;;13.57;3.90;;;6.80;99.90;;;;;;5027509;28;20190;-40
2022/02/22 01:49:31;;;;;;;14.73;4.57;;;6.50;99.90;;;;;;5028368;28;20792;-40
2022/02/22 01:51:57;;;;;;;19.83;4.43;;;6.80;99.90;;;;;;5027225;28;20429;-40
2022/02/22 01:54:25;;;;;;;14.97;4.53;;;6.90;99.90;;;;;;5019442;28;20444;-41
2022/02/22 01:56:52;;;;;;;19.73;5.63;;;6.60;99.90;;;;;;5027927;28;20511;-40
2022/02/22 01:59:19;;;;;;;16.90;5.43;;;6.80;99.90;;;;;;5027806;28;20464;-40
2022/02/22 02:01:44;;;;;;;18.67;4.73;;;6.40;99.90;;;;;;5026664;28;20884;-40
2022/02/22 02:04:10;;;;;;;25.10;5.03;;;6.60;99.90;;;;;;5027611;28;20487;-42
2022/02/22 02:06:37;;;;;;;19.87;6.27;;;6.80;99.90;;;;;;5027660;28;20475;-40
2022/02/22 02:09:10;;;;;;;22.00;4.80;;;6.70;99.90;;;;;;5018137;28;20190;-40
2022/02/22 02:11:50;;;;;;;20.83;4.50;;;6.70;99.90;;;;;;5026000;28;20432;-39
2022/02/22 02:14:17;;;;;;;16.73;4.57;;;6.70;99.90;;;;;;5027304;28;20425;-40
2022/02/22 02:16:43;;;;;;;20.47;4.77;;;6.90;99.90;;;;;;5026286;28;20749;-40
2022/02/22 02:19:14;;;;;;;22.27;5.60;;;6.90;99.90;;;;;;5027441;28;20425;-40
2022/02/22 02:21:41;;;;;;;24.77;5.60;;;6.60;99.90;;;;;;5026955;28;20467;-39
2022/02/22 02:24:11;;;;;;;23.10;6.97;;;6.60;99.90;;;;;;5016797;28;20496;-40
2022/02/22 02:26:38;;;;;;;18.50;4.33;;;6.30;99.90;;;;;;5026363;28;20428;-40
2022/02/22 02:29:09;;;;;;;21.13;6.17;;;6.40;99.90;;;;;;5027671;28;20425;-40
2022/02/22 02:31:37;;;;;;;21.67;4.90;;;6.60;99.90;;;;;;5025346;28;20425;-40
2022/02/22 02:34:05;;;;;;;20.60;4.83;;;6.50;99.90;;;;;;5027705;28;20426;-40
2022/02/22 02:36:32;;;;;;;17.67;5.17;;;6.70;99.90;;;;;;5027166;28;20429;-40
2022/02/22 02:38:58;;;;;;;24.97;4.47;;;6.70;99.90;;;;;;5019709;28;20449;-40
2022/02/22 02:41:24;;;;;;;14.00;4.13;;;6.30;99.90;;;;;;5029746;28;20459;-40
2022/02/22 02:43:49;;;;;;;25.70;5.00;;;6.30;99.90;;;;;;5031466;28;20413;-40
2022/02/22 02:46:15;;;;;;;13.83;4.23;;;6.20;99.90;;;;;;5031490;28;20555;-39
2022/02/22 02:48:41;;;;;;;18.90;5.73;;;6.30;99.90;;;;;;5031606;28;20233;-40
2022/02/22 02:51:06;;;;;;;22.23;4.13;;;6.40;99.90;;;;;;5030580;28;20194;-40
2022/02/22 02:53:32;;;;;;;21.30;5.10;;;6.40;99.90;;;;;;5025708;28;20198;-39
2022/02/22 02:55:58;;;;;;;14.00;4.00;;;6.30;99.90;;;;;;5026574;28;20205;-40
2022/02/22 02:58:23;;;;;;;19.07;5.07;;;6.30;99.90;;;;;;5031050;28;20650;-40
2022/02/22 03:00:49;;;;;;;17.77;4.43;;;6.40;99.90;;;;;;5030533;28;20575;-40
2022/02/22 03:03:14;;;;;;;18.73;4.67;;;6.20;99.90;;;;;;5030833;28;20187;-40
2022/02/22 03:05:40;;;;;;;12.93;4.23;;;6.10;99.90;;;;;;5030066;28;20226;-42
2022/02/22 03:08:06;;;;;;;27.47;5.43;;;6.10;99.90;;;;;;5028120;28;20691;-40
2022/02/22 03:10:32;;;;;;;19.47;4.63;;;6.30;99.90;;;;;;5021226;28;20236;-40
2022/02/22 03:12:57;;;;;;;20.10;4.90;;;6.50;99.90;;;;;;5030482;28;20190;-40
2022/02/22 03:15:23;;;;;;;17.83;4.50;;;6.10;99.90;;;;;;5031271;28;20686;-40
2022/02/22 03:17:49;;;;;;;21.40;4.93;;;6.20;99.90;;;;;;5029028;28;20200;-40
2022/02/22 03:20:14;;;;;;;17.77;4.93;;;6.20;99.90;;;;;;5036504;28;20239;-40
2022/02/22 03:22:45;;;;;;;17.97;4.80;;;6.20;99.90;;;;;;5050478;28;20201;-40
2022/02/22 03:25:11;;;;;;;18.37;5.03;;;6.10;99.90;;;;;;5022030;28;20888;-40
2022/02/22 03:27:37;;;;;;;17.17;3.67;;;6.10;99.90;;;;;;5030233;28;20954;-40
2022/02/22 03:30:04;;;;;;;14.80;3.27;;;6.20;99.90;;;;;;5030192;28;20437;-40
2022/02/22 03:32:30;;;;;;;18.43;5.57;;;5.90;99.90;;;;;;5030454;28;20421;-40
2022/02/22 03:34:55;;;;;;;26.40;5.60;;;6.10;99.90;;;;;;5030627;28;20969;-40
2022/02/22 03:37:21;;;;;;;25.00;5.83;;;6.20;99.90;;;;;;5030285;28;20196;-41
2022/02/22 03:39:47;;;;;;;14.90;4.10;;;6.10;99.90;;;;;;5021883;28;20195;-40
2022/02/22 03:42:12;;;;;;;19.07;5.13;;;6.30;99.90;;;;;;5030256;28;20763;-40
2022/02/22 03:44:38;;;;;;;17.57;4.00;;;6.10;99.90;;;;;;5030474;28;20289;-40
2022/02/22 03:47:04;;;;;;;17.33;5.67;;;6.10;99.90;;;;;;5030144;28;20194;-40
2022/02/22 03:49:30;;;;;;;19.70;4.83;;;6.00;99.90;;;;;;5030360;28;20194;-41
2022/02/22 03:51:55;;;;;;;19.60;5.30;;;6.10;99.90;;;;;;5029322;28;20417;-40
2022/02/22 03:54:21;;;;;;;15.43;4.80;;;6.00;99.90;;;;;;5025133;28;20281;-39
2022/02/22 03:56:47;;;;;;;13.10;3.60;;;6.00;99.90;;;;;;5024109;28;20221;-39
2022/02/22 03:59:12;;;;;;;13.17;3.87;;;6.00;99.90;;;;;;5030245;28;20193;-40
2022/02/22 04:01:38;;;;;;;13.40;4.20;;;6.10;99.90;;;;;;5029022;28;20556;-40
2022/02/22 04:04:04;;;;;;;16.03;4.43;;;5.90;99.90;;;;;;5028770;28;20190;-40
2022/02/22 04:06:30;;;;;;;23.40;5.67;;;5.80;99.90;;;;;;5029615;28;20201;-39
2022/02/22 04:08:56;;;;;;;17.97;5.10;;;6.10;99.90;;;;;;5024681;28;20434;-40
2022/02/22 04:11:22;;;;;;;18.93;3.93;;;5.90;99.90;;;;;;5024094;28;20798;-40
2022/02/22 04:13:48;;;;;;;21.83;4.53;;;5.90;99.90;;;;;;5029914;28;20490;-39
2022/02/22 04:16:14;;;;;;;24.53;5.13;;;5.90;99.90;;;;;;5027914;28;20429;-39
2022/02/22 04:18:40;;;;;;;20.23;4.60;;;5.80;99.90;;;;;;5030054;28;20452;-40
2022/02/22 04:21:05;;;;;;;19.73;4.60;;;6.00;99.90;;;;;;5028607;28;20460;-40
2022/02/22 04:23:31;;;;;;;18.60;4.50;;;5.80;99.90;;;;;;5048761;28;20464;-40
2022/02/22 04:25:57;;;;;;;19.70;5.00;;;5.90;99.90;;;;;;5017113;28;20179;-40
2022/02/22 04:28:22;;;;;;;27.93;5.03;;;6.00;99.90;;;;;;5029449;28;20198;-39
2022/02/22 04:30:48;;;;;;;14.93;4.20;;;5.90;99.90;;;;;;5028736;28;20226;-40
2022/02/22 04:33:14;;;;;;;18.37;4.80;;;6.00;99.90;;;;;;5029528;28;20190;-41
2022/02/22 04:35:39;;;;;;;16.20;5.07;;;6.00;99.90;;;;;;5029396;28;20185;-40
2022/02/22 04:38:05;;;;;;;22.73;5.10;;;5.90;99.90;;;;;;5029119;28;20194;-40
2022/02/22 04:40:31;;;;;;;19.60;5.47;;;6.00;99.90;;;;;;5018740;28;20276;-40
2022/02/22 04:42:57;;;;;;;16.07;7.70;;;6.00;99.90;;;;;;5029096;28;20198;-40
2022/02/22 04:45:22;;;;;;;19.20;5.00;;;5.90;99.90;;;;;;5029389;28;20700;-40
2022/02/22 04:47:48;;;;;;;16.93;4.40;;;5.80;99.90;;;;;;5029017;28;20209;-40
2022/02/22 04:50:16;;;;;;;17.90;6.80;;;5.90;99.90;;;;;;5028435;28;20273;-40
2022/02/22 04:52:41;;;;;;;22.47;5.70;;;6.10;99.90;;;;;;5028636;28;20440;-41
2022/02/22 04:55:07;;;;;;;16.77;4.90;;;5.90;99.90;;;;;;5016752;28;21000;-40
2022/02/22 04:57:37;;;;;;;21.40;7.43;;;5.70;99.90;;;;;;5028349;28;20577;-40
2022/02/22 05:00:09;;;;;;;20.37;4.07;;;5.90;99.90;;;;;;5028097;28;20457;-40
2022/02/22 05:02:35;;;;;;;16.90;4.90;;;5.70;99.90;;;;;;5028198;28;20413;-40
2022/02/22 05:05:01;;;;;;;16.47;4.80;;;5.80;99.90;;;;;;5028561;28;20424;-41
2022/02/22 05:07:27;;;;;;;20.63;4.50;;;6.00;99.90;;;;;;5028909;28;20190;-41
2022/02/22 05:09:52;;;;;;;18.57;4.50;;;5.80;99.90;;;;;;5021769;28;20273;-40
2022/02/22 05:12:18;;;;;;;21.10;6.43;;;5.80;99.90;;;;;;5025892;28;20951;-40
2022/02/22 05:14:44;;;;;;;24.03;5.13;;;5.80;99.90;;;;;;5028704;28;20232;-42
2022/02/22 05:17:09;;;;;;;27.93;6.43;;;6.00;99.90;;;;;;5027153;28;20191;-40
2022/02/22 05:19:35;;;;;;;16.10;4.57;;;5.80;99.90;;;;;;5028570;28;20277;-40
2022/02/22 05:22:00;;;;;;;20.67;5.47;;;6.00;99.90;;;;;;5048217;28;20206;-40
2022/02/22 05:24:26;;;;;;;29.43;6.27;;;5.50;99.90;;;;;;5041378;28;20202;-40
2022/02/22 05:26:52;;;;;;;18.70;5.13;;;5.80;99.90;;;;;;5022070;28;20227;-40
2022/02/22 05:29:17;;;;;;;19.83;4.50;;;5.60;99.90;;;;;;5028293;28;20186;-40
2022/02/22 05:31:43;;;;;;;23.97;5.73;;;5.50;99.90;;;;;;5028163;28;20190;-39
2022/02/22 05:34:09;;;;;;;26.30;5.80;;;5.90;99.90;;;;;;5028271;28;20273;-40
2022/02/22 05:36:35;;;;;;;20.53;5.03;;;5.70;99.90;;;;;;5028172;28;20417;-40
2022/02/22 05:39:01;;;;;;;24.93;5.27;;;5.70;99.90;;;;;;5028372;28;20566;-39
2022/02/22 05:41:26;;;;;;;16.27;5.10;;;5.70;99.90;;;;;;5015224;28;20392;-40
2022/02/22 05:43:52;;;;;;;20.00;5.40;;;5.60;99.90;;;;;;5021657;28;20188;-40
2022/02/22 05:46:18;;;;;;;18.83;5.00;;;5.90;99.90;;;;;;5026216;28;20413;-39
2022/02/22 05:48:44;;;;;;;19.13;6.17;;;5.80;99.90;;;;;;5026373;28;20270;-40
2022/02/22 05:51:10;;;;;;;15.00;4.97;;;5.90;99.90;;;;;;5026817;28;21016;-39
2022/02/22 05:53:37;;;;;;;16.07;4.70;;;6.00;99.90;;;;;;5027830;28;20431;-41
2022/02/22 05:56:03;;;;;;;22.97;4.80;;;6.00;99.90;;;;;;5017212;28;20213;-40
2022/02/22 05:58:30;;;;;;;23.33;4.60;;;5.80;99.90;;;;;;5026081;28;20441;-40
2022/02/22 06:00:56;;;;;;;20.13;4.93;;;5.70;99.90;;;;;;5025645;28;20823;-40
2022/02/22 06:03:22;;;;;;;16.43;4.90;;;5.90;99.90;;;;;;5027270;28;20425;-41
2022/02/22 06:05:47;;;;;;;18.87;5.50;;;5.70;99.90;;;;;;5028136;28;20256;-40
2022/02/22 06:08:13;;;;;;;26.07;6.67;;;5.60;99.90;;;;;;5027486;28;20240;-44
2022/02/22 06:10:39;;;;;;;21.60;7.10;;;5.80;99.90;;;;;;5016969;28;20673;-41
2022/02/22 06:13:04;;;;;;;16.00;4.40;;;5.70;99.90;;;;;;5027251;28;20191;-39
2022/02/22 06:15:30;;;;;;;18.23;4.70;;;5.80;99.90;;;;;;5019890;28;20217;-40
2022/02/22 06:17:55;;;;;;;22.20;5.77;;;5.70;99.90;;;;;;5026143;28;20241;-40
2022/02/22 06:20:21;;;;;;;18.47;5.47;;;5.50;99.90;;;;;;5037318;28;20205;-40
2022/02/22 06:22:47;;;;;;;20.27;5.10;;;5.60;99.90;;;;;;5047346;28;20232;-40
2022/02/22 06:25:13;;;;;;;16.80;5.20;;;5.40;99.90;;;;;;5032741;28;20496;-40
2022/02/22 06:27:51;;;;;;;16.53;4.20;;;5.60;99.90;;;;;;5022351;28;20664;-41
2022/02/22 06:30:18;;;;;;;24.50;6.07;;;5.50;99.90;;;;;;5020780;28;20424;-41
2022/02/22 06:32:44;;;;;;;25.37;5.20;;;5.40;99.90;;;;;;5022027;28;20428;-40
2022/02/22 06:35:10;;;;;;;18.97;5.57;;;5.40;99.90;;;;;;5027522;28;20417;-40
2022/02/22 06:37:36;;;;;;;14.07;4.27;;;5.40;99.90;;;;;;5027432;28;20480;-40
2022/02/22 06:40:05;;;;;;;16.37;5.23;;;5.30;99.90;;;;;;5021392;28;20194;-41
2022/02/22 06:42:32;;;;;;;21.63;5.00;;;5.30;99.90;;;;;;5023709;28;20792;-40
2022/02/22 06:44:58;;;;;;;20.77;6.53;;;5.30;99.90;;;;;;5025637;28;20763;-39
2022/02/22 06:47:23;;;;;;;20.30;4.73;;;5.30;99.90;;;;;;5027487;28;20483;-40
2022/02/22 06:49:49;;;;;;;14.83;3.90;;;5.20;99.90;;;;;;5025197;28;20191;-40
2022/02/22 06:52:15;;;;;;;22.43;6.27;;;5.20;99.90;;;;;;5027041;28;20553;-40
2022/02/22 06:54:41;;;;;;;14.00;4.10;;;5.30;99.90;;;;;;5025620;28;20428;-40
2022/02/22 06:57:06;;;;;;;24.67;5.13;;;5.20;99.90;;;;;;5018081;28;20233;-40
2022/02/22 06:59:32;;;;;;;19.70;3.83;;;5.40;99.90;;;;;;5023830;28;20193;-40
2022/02/22 07:01:58;;;;;;;16.47;4.23;;;5.30;99.90;;;;;;5023949;28;20217;-39
2022/02/22 07:04:24;;;;;;;18.83;5.73;;;5.20;99.90;;;;;;5026749;28;20274;-40
2022/02/22 07:06:49;;;;;;;17.90;4.30;;;5.60;99.90;;;;;;5038170;28;20179;-40
2022/02/22 07:09:15;;;;;;;18.30;4.83;;;5.50;99.90;;;;;;5029063;28;20202;-40
2022/02/22 07:11:41;;;;;;;15.00;5.00;;;5.60;99.90;;;;;;5016374;28;20197;-40
2022/02/22 07:14:06;;;;;;;18.03;5.10;;;5.70;99.90;;;;;;5026545;28;20196;-40
2022/02/22 07:16:32;;;;;;;19.37;4.70;;;5.60;99.90;;;;;;5025508;28;20197;-39
2022/02/22 07:18:58;;;;;;;13.17;4.60;;;5.80;99.90;;;;;;5027052;28;20217;-40
2022/02/22 07:21:24;;;;;;;15.47;5.40;;;5.50;99.90;;;;;;5027751;28;20270;-39
2022/02/22 07:23:49;;;;;;;21.43;5.37;;;5.80;99.90;;;;;;5046959;28;20214;-40
2022/02/22 07:26:16;;;;;;;18.43;5.33;;;5.60;99.90;;;;;;5029920;28;20448;-39
2022/02/22 07:28:42;;;;;;;16.33;5.33;;;5.60;99.90;;;;;;5025613;28;20209;-40
2022/02/22 07:31:09;;;;;;;21.43;4.80;;;5.60;99.90;;;;;;5030006;28;20429;-40
2022/02/22 07:33:35;;;;;;;14.67;5.30;;;5.60;99.90;;;;;;5030594;28;20774;-40
2022/02/22 07:36:00;;;;;;;15.83;4.80;;;5.40;99.90;;;;;;5029874;28;20433;-40
2022/02/22 07:38:26;;;;;;;14.77;5.00;;;5.40;99.90;;;;;;5032350;28;20178;-40
2022/02/22 07:40:52;;;;;;;20.60;5.60;;;5.50;99.90;;;;;;5024213;28;20210;-40
2022/02/22 07:43:17;;;;;;;20.80;7.17;;;5.50;99.90;;;;;;5026473;28;20197;-40
2022/02/22 07:45:43;;;;;;;20.43;6.37;;;5.30;99.90;;;;;;5032017;28;20190;-39
2022/02/22 07:48:09;;;;;;;18.23;5.87;;;5.20;99.90;;;;;;5032004;28;20360;-40
2022/02/22 07:50:37;;;;;;;18.33;6.83;;;5.60;99.90;;;;;;5029194;28;20193;-40
2022/02/22 07:53:03;;;;;;;18.43;6.37;;;5.40;99.90;;;;;;5030139;28;20367;-40
2022/02/22 07:55:29;;;;;;;20.30;6.40;;;5.80;99.90;;;;;;5028292;28;20665;-40
2022/02/22 07:57:54;;;;;;;15.33;6.80;;;5.60;99.90;;;;;;5028668;28;20456;-40
2022/02/22 08:00:20;;;;;;;17.57;6.50;;;5.70;99.90;;;;;;5029174;28;20280;-40
2022/02/22 08:02:46;;;;;;;22.83;6.60;;;5.70;99.90;;;;;;5029625;28;20560;-41
2022/02/22 08:05:12;;;;;;;19.50;6.93;;;6.00;99.90;;;;;;5030188;28;20183;-40
2022/02/22 08:07:38;;;;;;;16.67;5.87;;;6.30;99.90;;;;;;5030008;28;20598;-40
2022/02/22 08:10:05;;;;;;;28.13;7.60;;;6.50;99.90;;;;;;5028813;28;20487;-40
2022/02/22 08:12:31;;;;;;;20.13;5.57;;;6.60;99.90;;;;;;5020115;28;20188;-41
2022/02/22 08:14:56;;;;;;;18.67;6.30;;;6.70;99.90;;;;;;5028619;28;20409;-40
2022/02/22 08:17:22;;;;;;;19.67;6.67;;;6.60;99.90;;;;;;5028590;28;20213;-40
2022/02/22 08:19:48;;;;;;;15.20;4.80;;;6.30;99.90;;;;;;5031582;28;20727;-40
2022/02/22 08:22:14;;;;;;;16.67;6.00;;;6.40;99.90;;;;;;5048254;28;20451;-40
2022/02/22 08:24:39;;;;;;;26.37;6.20;;;6.10;99.90;;;;;;5049797;28;20480;-40
2022/02/22 08:27:05;;;;;;;22.60;6.47;;;6.30;99.90;;;;;;5025026;28;20682;-41
2022/02/22 08:29:31;;;;;;;15.13;5.23;;;6.20;99.90;;;;;;5029170;28;20194;-40
2022/02/22 08:31:58;;;;;;;20.93;5.33;;;6.30;99.90;;;;;;5027651;28;20186;-40
2022/02/22 08:34:24;;;;;;;19.67;5.77;;;6.10;99.90;;;;;;5029151;28;20429;-40
2022/02/22 08:36:50;;;;;;;12.57;5.67;;;6.30;99.90;;;;;;5028981;28;20417;-40
2022/02/22 08:39:15;;;;;;;21.13;5.70;;;6.20;99.90;;;;;;5028671;28;20626;-39
2022/02/22 08:41:42;;;;;;;14.67;5.30;;;6.40;99.90;;;;;;5026075;28;20293;-40
2022/02/22 08:44:10;;;;;;;17.40;5.40;;;6.40;99.90;;;;;;5027853;28;20247;-40
2022/02/22 08:46:36;;;;;;;19.07;5.10;;;6.40;99.90;;;;;;5028791;28;20474;-40
2022/02/22 08:49:01;;;;;;;13.63;4.40;;;6.80;99.90;;;;;;5043666;28;20829;-40
2022/02/22 08:51:27;;;;;;;15.17;5.40;;;6.70;99.90;;;;;;5037982;28;20499;-41
2022/02/22 08:53:53;;;;;;;13.20;5.23;;;7.10;99.90;;;;;;5049001;28;20185;-40
2022/02/22 08:56:18;;;;;;;16.20;5.50;;;7.10;99.90;;;;;;5030892;28;20198;-39
2022/02/22 08:58:44;;;;;;;15.27;5.07;;;7.10;99.90;;;;;;5024988;28;20495;-41
2022/02/22 09:01:10;;;;;;;11.00;4.60;;;7.00;99.90;;;;;;5027146;28;20731;-40
2022/02/22 09:03:35;;;;;;;13.60;5.40;;;6.80;99.90;;;;;;5028617;28;20190;-40
2022/02/22 09:06:01;;;;;;;11.67;5.50;;;6.80;99.90;;;;;;5027530;28;20190;-40
2022/02/22 09:08:27;;;;;;;11.90;5.60;;;7.00;99.90;;;;;;5028746;28;20190;-40
2022/02/22 09:10:53;;;;;;;16.40;6.83;;;7.10;99.90;;;;;;5022993;28;20249;-41
2022/02/22 09:13:20;;;;;;;19.30;5.70;;;7.10;99.90;;;;;;5017920;28;20421;-40
2022/02/22 09:15:46;;;;;;;19.90;5.70;;;7.30;99.90;;;;;;5028698;28;20190;-40
2022/02/22 09:18:12;;;;;;;22.77;5.83;;;7.20;99.90;;;;;;5026857;28;21015;-39
2022/02/22 09:20:38;;;;;;;12.13;5.33;;;7.30;99.90;;;;;;5037037;28;20467;-41
2022/02/22 09:23:04;;;;;;;13.00;6.20;;;7.20;99.90;;;;;;5048240;28;20174;-40
2022/02/22 09:25:32;;;;;;;13.83;6.67;;;7.40;99.90;;;;;;5046788;28;20439;-40
2022/02/22 09:27:59;;;;;;;20.77;5.27;;;7.30;99.90;;;;;;5020306;28;20982;-40
2022/02/22 09:30:25;;;;;;;17.73;6.17;;;7.20;99.90;;;;;;5027757;28;20445;-41
2022/02/22 09:32:51;;;;;;;11.00;5.67;;;7.10;99.90;;;;;;5028086;28;20464;-40
2022/02/22 09:35:19;;;;;;;14.00;5.70;;;6.90;99.90;;;;;;5028395;28;20186;-41
2022/02/22 09:37:45;;;;;;;16.50;5.87;;;7.10;99.90;;;;;;5028047;28;20707;-40
2022/02/22 09:40:12;;;;;;;16.00;5.87;;;7.10;99.90;;;;;;5027835;28;20479;-41
2022/02/22 09:42:39;;;;;;;18.43;5.67;;;7.00;99.90;;;;;;5016643;28;20432;-40
2022/02/22 09:45:08;;;;;;;12.60;6.47;;;7.00;99.90;;;;;;5028216;28;20761;-40
2022/02/22 09:47:34;;;;;;;13.73;5.90;;;7.10;99.90;;;;;;5028044;28;20459;-40
2022/02/22 09:50:00;;;;;;;9.30;5.80;;;7.10;99.90;;;;;;5027204;28;20429;-40
2022/02/22 09:52:26;;;;;;;11.80;5.07;;;7.00;99.90;;;;;;5027614;28;20972;-40
2022/02/22 09:54:52;;;;;;;12.10;4.67;;;7.10;99.90;;;;;;5028127;28;20425;-40
2022/02/22 09:57:18;;;;;;;15.23;4.80;;;7.20;99.90;;;;;;5016131;28;20453;-40
2022/02/22 09:59:44;;;;;;;18.60;4.00;;;7.30;99.90;;;;;;5027280;28;20210;-40
2022/02/22 10:02:10;;;;;;;15.23;4.70;;;7.50;99.90;;;;;;5027629;28;20339;-40
2022/02/22 10:04:46;;;;;;;13.80;4.70;;;7.30;99.90;;;;;;5027730;28;20464;-41
2022/02/22 10:07:13;;;;;;;13.83;5.20;;;7.30;99.90;;;;;;5027606;28;20797;-40
2022/02/22 10:09:59;;;;;;;12.47;4.20;;;7.30;99.90;;;;;;5027199;28;20421;-40
2022/02/22 10:12:30;;;;;;;10.37;3.50;;;7.50;99.90;;;;;;5016980;28;20516;-40
2022/02/22 10:14:57;;;;;;;10.83;3.87;;;7.40;99.90;;;;;;5025011;28;20427;-41
2022/02/22 10:17:23;;;;;;;12.47;4.40;;;7.60;99.90;;;;;;5025746;28;20948;-42
2022/02/22 10:20:03;;;;;;;12.80;4.47;;;7.50;99.90;;;;;;5026275;28;20421;-40
2022/02/22 10:22:32;;;;;;;15.00;4.00;;;7.70;99.90;;;;;;5038785;28;20818;-40
2022/02/22 10:25:06;;;;;;;11.30;5.07;;;7.70;99.90;;;;;;5046700;28;20503;-40
2022/02/22 10:27:52;;;;;;;8.30;3.60;;;7.70;99.90;;;;;;5020985;28;20437;-40
2022/02/22 10:30:23;;;;;;;5.90;2.83;;;7.80;99.90;;;;;;5025562;28;20747;-40
2022/02/22 10:32:49;;;;;;;14.97;4.20;;;8.00;99.90;;;;;;5026819;28;20417;-40
2022/02/22 10:35:29;;;;;;;7.90;3.63;;;7.90;99.90;;;;;;5027015;28;20424;-40
2022/02/22 10:37:55;;;;;;;12.90;4.07;;;7.80;99.90;;;;;;5026414;28;20783;-40
2022/02/22 10:40:28;;;;;;;8.20;3.90;;;7.80;99.90;;;;;;5026510;28;20425;-40
2022/02/22 10:42:54;;;;;;;11.87;5.77;;;7.90;99.90;;;;;;5015424;28;20429;-40
2022/02/22 10:45:21;;;;;;;17.03;4.70;;;7.90;99.90;;;;;;5027329;28;20840;-41
2022/02/22 10:47:47;;;;;;;12.23;4.50;;;7.90;99.90;;;;;;5027230;28;20449;-40
2022/02/22 10:50:14;;;;;;;11.90;4.20;;;7.90;99.90;;;;;;5026862;28;20418;-40
2022/02/22 10:52:40;;;;;;;11.43;4.60;;;7.80;99.90;;;;;;5027058;28;20834;-40
2022/02/22 10:55:06;;;;;;;10.97;5.30;;;7.90;99.90;;;;;;5027379;28;20433;-40
2022/02/22 10:57:32;;;;;;;10.27;5.17;;;7.90;99.90;;;;;;5020174;28;20286;-41
2022/02/22 10:59:58;;;;;;;15.47;6.33;;;8.00;99.90;;;;;;5026569;28;20414;-40
2022/02/22 11:02:24;;;;;;;13.77;5.00;;;8.00;99.90;;;;;;5030525;28;20751;-40
2022/02/22 11:04:49;;;;;;;11.93;5.70;;;7.90;99.90;;;;;;5031201;28;20182;-39
2022/02/22 11:07:20;;;;;;;13.40;5.67;;;8.30;99.90;;;;;;5031106;28;20252;-40
2022/02/22 11:09:48;;;;;;;15.67;6.87;;;8.00;99.90;;;;;;5030386;28;20479;-39
2022/02/22 11:12:25;;;;;;;9.93;5.53;;;8.00;99.90;;;;;;5022300;28;20480;-40
2022/02/22 11:15:02;;;;;;;9.63;5.83;;;8.30;99.90;;;;;;5026836;28;20471;-40
2022/02/22 11:17:28;;;;;;;16.27;6.10;;;7.90;99.90;;;;;;5028657;28;20428;-40
2022/02/22 11:19:56;;;;;;;11.00;4.83;;;8.10;99.90;;;;;;5030768;28;20425;-40
2022/02/22 11:22:26;;;;;;;13.93;4.87;;;8.40;99.90;;;;;;5043422;28;20224;-40
2022/02/22 11:24:53;;;;;;;12.93;5.20;;;8.20;99.90;;;;;;5052229;28;20478;-40
2022/02/22 11:27:38;;;;;;;13.10;4.63;;;8.20;99.90;;;;;;5033450;28;20426;-40
2022/02/22 11:30:26;;;;;;;16.63;5.47;;;8.50;99.90;;;;;;5026447;28;20454;-40
2022/02/22 11:32:58;;;;;;;13.80;5.40;;;8.40;99.90;;;;;;5030445;28;20429;-40
2022/02/22 11:35:26;;;;;;;12.93;5.63;;;8.30;99.90;;;;;;5032240;28;20441;-40
2022/02/22 11:38:07;;;;;;;16.60;5.40;;;8.30;99.90;;;;;;5032192;28;20409;-42
2022/02/22 11:40:33;;;;;;;15.17;5.20;;;8.40;99.90;;;;;;5031302;28;20468;-40
2022/02/22 11:43:17;;;;;;;17.87;6.17;;;8.50;99.90;;;;;;5018932;28;20457;-40
2022/02/22 11:45:49;;;;;;;10.93;4.90;;;8.50;99.90;;;;;;5030500;28;20428;-40
2022/02/22 11:48:27;;;;;;;10.00;4.70;;;8.40;99.90;;;;;;5032179;28;20418;-39
2022/02/22 11:50:58;;;;;;;11.00;5.07;;;8.50;99.90;;;;;;5031202;28;20966;-40
2022/02/22 11:53:24;;;;;;;9.63;4.50;;;8.50;99.90;;;;;;5031642;28;20428;-39
2022/02/22 11:55:51;;;;;;;10.43;4.80;;;8.50;99.90;;;;;;5031730;28;20421;-39
2022/02/22 11:58:25;;;;;;;15.07;6.00;;;8.60;99.90;;;;;;5019270;28;20798;-40
2022/02/22 12:00:56;;;;;;;8.03;4.37;;;8.60;99.90;;;;;;5029494;28;21159;-42
2022/02/22 12:03:23;;;;;;;17.80;5.10;;;8.30;99.90;;;;;;5031811;28;20413;-43
2022/02/22 12:06:09;;;;;;;14.37;4.47;;;8.40;99.90;;;;;;5031472;28;20421;-40
2022/02/22 12:08:41;;;;;;;17.03;4.90;;;8.30;99.90;;;;;;5031842;28;20440;-42
2022/02/22 12:11:19;;;;;;;13.73;4.50;;;8.50;99.90;;;;;;5030965;28;20433;-39
2022/02/22 12:14:02;;;;;;;13.10;4.17;;;8.40;99.90;;;;;;5020834;28;20456;-41
2022/02/22 12:16:30;;;;;;;10.10;5.70;;;8.40;99.90;;;;;;5028473;28;20454;-40
2022/02/22 12:18:59;;;;;;;11.03;4.03;;;8.40;99.90;;;;;;5031650;28;20440;-42
2022/02/22 12:21:26;;;;;;;10.83;4.43;;;8.40;99.90;;;;;;5038630;28;20519;-40
2022/02/22 12:23:53;;;;;;;10.20;4.33;;;8.40;99.90;;;;;;5051545;28;20425;-40
2022/02/22 12:26:21;;;;;;;15.07;4.60;;;8.50;99.90;;;;;;5051251;28;20431;-40
2022/02/22 12:29:03;;;;;;;13.23;4.13;;;8.50;99.90;;;;;;5023008;28;20435;-40
2022/02/22 12:31:36;;;;;;;16.30;4.20;;;8.50;99.90;;;;;;5029295;28;20488;-40
2022/02/22 12:34:05;;;;;;;13.83;5.97;;;8.40;99.90;;;;;;5031192;28;20424;-40
2022/02/22 12:36:31;;;;;;;11.50;4.27;;;8.30;99.90;;;;;;5031210;28;20429;-40
2022/02/22 12:39:00;;;;;;;14.90;5.10;;;8.30;99.90;;;;;;5030916;28;21215;-40
2022/02/22 12:41:32;;;;;;;14.20;4.43;;;8.40;99.90;;;;;;5028864;28;20468;-40
2022/02/22 12:43:57;;;;;;;13.23;4.80;;;8.30;99.90;;;;;;5020104;28;20425;-40
2022/02/22 12:46:24;;;;;;;12.93;4.87;;;8.40;99.90;;;;;;5030980;28;21139;-40
2022/02/22 12:48:51;;;;;;;17.17;4.70;;;8.30;99.90;;;;;;5030838;28;20178;-41